sensor_id;sensor_type;location;lat;lon;timestamp;P1;durP1;ratioP1;P2;durP2;ratioP2
57281;SDS011;43129;52.628;10.098;2023-11-18T08:36:30;36.35;;;11.43;;
57281;SDS011;43129;52.628;10.098;2023-11-18T08:38:59;25.93;;;10.90;;
57281;SDS011;43129;52.628;10.098;2023-11-18T08:41:26;50.03;;;12.55;;
57281;SDS011;43129;52.628;10.098;2023-11-18T08:43:58;26.45;;;10.38;;
57281;SDS011;43129;52.628;10.098;2023-11-18T08:46:30;32.75;;;10.73;;
57281;SDS011;43129;52.628;10.098;2023-11-18T08:48:56;24.77;;;11.38;;
57281;SDS011;43129;52.628;10.098;2023-11-18T08:51:22;28.70;;;11.60;;
57281;SDS011;43129;52.628;10.098;2023-11-18T08:53:51;25.67;;;11.52;;
57281;SDS011;43129;52.628;10.098;2023-11-18T08:56:19;33.40;;;12.45;;
57281;SDS011;43129;52.628;10.098;2023-11-18T08:58:59;28.35;;;13.20;;
57281;SDS011;43129;52.628;10.098;2023-11-18T09:01:27;36.13;;;16.25;;
57281;SDS011;43129;52.628;10.098;2023-11-18T09:03:56;30.13;;;15.52;;
57281;SDS011;43129;52.628;10.098;2023-11-18T09:06:22;30.27;;;15.70;;
57281;SDS011;43129;52.628;10.098;2023-11-18T09:08:53;27.13;;;14.30;;
57281;SDS011;43129;52.628;10.098;2023-11-18T09:11:22;26.33;;;14.40;;
57281;SDS011;43129;52.628;10.098;2023-11-18T09:13:50;24.23;;;13.95;;
57281;SDS011;43129;52.628;10.098;2023-11-18T09:16:25;25.02;;;14.00;;
57281;SDS011;43129;52.628;10.098;2023-11-18T09:18:54;23.33;;;13.90;;
57281;SDS011;43129;52.628;10.098;2023-11-18T09:21:20;35.45;;;19.10;;
57281;SDS011;43129;52.628;10.098;2023-11-18T09:23:50;29.92;;;15.95;;
57281;SDS011;43129;52.628;10.098;2023-11-18T09:26:20;26.52;;;14.32;;
57281;SDS011;43129;52.628;10.098;2023-11-18T09:28:46;26.42;;;15.52;;
57281;SDS011;43129;52.628;10.098;2023-11-18T09:31:14;29.67;;;16.63;;
57281;SDS011;43129;52.628;10.098;2023-11-18T09:33:44;33.55;;;16.38;;
57281;SDS011;43129;52.628;10.098;2023-11-18T09:36:17;29.00;;;15.13;;
57281;SDS011;43129;52.628;10.098;2023-11-18T09:38:43;29.70;;;16.13;;
57281;SDS011;43129;52.628;10.098;2023-11-18T09:41:18;26.67;;;16.17;;
57281;SDS011;43129;52.628;10.098;2023-11-18T09:43:51;31.52;;;16.42;;
57281;SDS011;43129;52.628;10.098;2023-11-18T09:46:26;32.17;;;17.98;;
57281;SDS011;43129;52.628;10.098;2023-11-18T09:51:41;28.92;;;16.85;;
57281;SDS011;43129;52.628;10.098;2023-11-18T09:54:17;26.02;;;17.05;;
57281;SDS011;43129;52.628;10.098;2023-11-18T09:59:23;26.98;;;15.80;;
57281;SDS011;43129;52.628;10.098;2023-11-18T10:02:00;24.33;;;16.30;;
57281;SDS011;43129;52.628;10.098;2023-11-18T10:04:30;25.73;;;15.75;;
57281;SDS011;43129;52.628;10.098;2023-11-18T10:07:00;22.75;;;15.10;;
57281;SDS011;43129;52.628;10.098;2023-11-18T10:09:31;23.33;;;14.40;;
57281;SDS011;43129;52.628;10.098;2023-11-18T10:12:02;21.85;;;15.20;;
57281;SDS011;43129;52.628;10.098;2023-11-18T10:14:40;31.80;;;16.75;;
57281;SDS011;43129;52.628;10.098;2023-11-18T10:17:08;24.37;;;16.17;;
57281;SDS011;43129;52.628;10.098;2023-11-18T10:19:55;26.17;;;17.38;;
57281;SDS011;43129;52.628;10.098;2023-11-18T10:22:37;24.13;;;15.40;;
57281;SDS011;43129;52.628;10.098;2023-11-18T10:25:03;27.48;;;18.42;;
57281;SDS011;43129;52.628;10.098;2023-11-18T10:27:33;27.15;;;18.23;;
57281;SDS011;43129;52.628;10.098;2023-11-18T10:30:03;25.13;;;16.67;;
57281;SDS011;43129;52.628;10.098;2023-11-18T10:32:32;23.38;;;15.60;;
57281;SDS011;43129;52.628;10.098;2023-11-18T10:35:03;24.52;;;15.98;;
57281;SDS011;43129;52.628;10.098;2023-11-18T10:37:35;21.17;;;15.30;;
57281;SDS011;43129;52.628;10.098;2023-11-18T10:40:10;22.38;;;15.88;;
57281;SDS011;43129;52.628;10.098;2023-11-18T10:42:39;23.25;;;15.88;;
57281;SDS011;43129;52.628;10.098;2023-11-18T10:45:05;22.52;;;15.93;;
57281;SDS011;43129;52.628;10.098;2023-11-18T10:47:34;22.95;;;15.90;;
57281;SDS011;43129;52.628;10.098;2023-11-18T10:50:03;23.70;;;16.27;;
57281;SDS011;43129;52.628;10.098;2023-11-18T10:52:30;23.13;;;17.00;;
57281;SDS011;43129;52.628;10.098;2023-11-18T10:55:00;29.05;;;19.25;;
57281;SDS011;43129;52.628;10.098;2023-11-18T10:57:32;31.08;;;20.65;;
57281;SDS011;43129;52.628;10.098;2023-11-18T11:00:01;31.25;;;20.92;;
57281;SDS011;43129;52.628;10.098;2023-11-18T11:02:32;34.53;;;21.63;;
57281;SDS011;43129;52.628;10.098;2023-11-18T11:05:05;38.08;;;23.10;;
57281;SDS011;43129;52.628;10.098;2023-11-18T11:07:46;36.88;;;23.05;;
57281;SDS011;43129;52.628;10.098;2023-11-18T11:10:16;36.50;;;22.52;;
57281;SDS011;43129;52.628;10.098;2023-11-18T11:12:49;41.30;;;24.08;;
57281;SDS011;43129;52.628;10.098;2023-11-18T11:15:22;39.53;;;24.90;;
57281;SDS011;43129;52.628;10.098;2023-11-18T11:17:53;43.30;;;26.13;;
57281;SDS011;43129;52.628;10.098;2023-11-18T11:20:27;49.58;;;27.35;;
57281;SDS011;43129;52.628;10.098;2023-11-18T11:26:13;45.45;;;26.70;;
57281;SDS011;43129;52.628;10.098;2023-11-18T11:31:35;47.40;;;26.42;;
57281;SDS011;43129;52.628;10.098;2023-11-18T11:34:14;52.63;;;27.38;;
57281;SDS011;43129;52.628;10.098;2023-11-18T11:36:42;44.92;;;25.30;;
57281;SDS011;43129;52.628;10.098;2023-11-18T11:39:11;46.67;;;25.75;;
57281;SDS011;43129;52.628;10.098;2023-11-18T11:41:46;48.30;;;25.05;;
57281;SDS011;43129;52.628;10.098;2023-11-18T11:44:19;42.50;;;23.85;;
57281;SDS011;43129;52.628;10.098;2023-11-18T11:46:48;41.58;;;24.45;;
57281;SDS011;43129;52.628;10.098;2023-11-18T11:49:23;43.42;;;24.38;;
57281;SDS011;43129;52.628;10.098;2023-11-18T11:52:01;42.05;;;23.27;;
57281;SDS011;43129;52.628;10.098;2023-11-18T11:54:37;46.03;;;24.30;;
57281;SDS011;43129;52.628;10.098;2023-11-18T11:57:10;42.97;;;24.05;;
57281;SDS011;43129;52.628;10.098;2023-11-18T12:02:12;48.05;;;25.20;;
57281;SDS011;43129;52.628;10.098;2023-11-18T12:04:44;42.72;;;23.60;;
57281;SDS011;43129;52.628;10.098;2023-11-18T12:07:10;43.40;;;24.48;;
57281;SDS011;43129;52.628;10.098;2023-11-18T12:09:40;43.22;;;24.65;;
57281;SDS011;43129;52.628;10.098;2023-11-18T12:12:18;46.03;;;23.98;;
57281;SDS011;43129;52.628;10.098;2023-11-18T12:14:53;41.40;;;22.70;;
57281;SDS011;43129;52.628;10.098;2023-11-18T12:17:25;40.78;;;22.48;;
57281;SDS011;43129;52.628;10.098;2023-11-18T12:19:56;39.70;;;24.10;;
57281;SDS011;43129;52.628;10.098;2023-11-18T12:25:39;44.97;;;23.02;;
57281;SDS011;43129;52.628;10.098;2023-11-18T12:28:25;43.05;;;24.30;;
57281;SDS011;43129;52.628;10.098;2023-11-18T12:30:55;39.88;;;21.52;;
57281;SDS011;43129;52.628;10.098;2023-11-18T12:33:25;40.53;;;22.20;;
57281;SDS011;43129;52.628;10.098;2023-11-18T12:41:39;40.60;;;23.40;;
57281;SDS011;43129;52.628;10.098;2023-11-18T12:47:02;41.70;;;21.25;;
57281;SDS011;43129;52.628;10.098;2023-11-18T12:49:41;39.90;;;20.88;;
57281;SDS011;43129;52.628;10.098;2023-11-18T12:52:10;37.88;;;21.52;;
57281;SDS011;43129;52.628;10.098;2023-11-18T12:54:40;37.15;;;20.45;;
57281;SDS011;43129;52.628;10.098;2023-11-18T12:57:09;44.58;;;23.08;;
57281;SDS011;43129;52.628;10.098;2023-11-18T12:59:39;38.80;;;20.70;;
57281;SDS011;43129;52.628;10.098;2023-11-18T13:02:08;42.00;;;20.77;;
57281;SDS011;43129;52.628;10.098;2023-11-18T13:04:39;38.17;;;20.90;;
57281;SDS011;43129;52.628;10.098;2023-11-18T13:07:05;38.30;;;20.55;;
57281;SDS011;43129;52.628;10.098;2023-11-18T13:09:36;36.40;;;19.98;;
57281;SDS011;43129;52.628;10.098;2023-11-18T13:12:07;39.43;;;20.17;;
57281;SDS011;43129;52.628;10.098;2023-11-18T13:14:34;40.63;;;19.30;;
57281;SDS011;43129;52.628;10.098;2023-11-18T13:17:04;38.55;;;23.20;;
57281;SDS011;43129;52.628;10.098;2023-11-18T13:19:36;47.28;;;24.42;;
57281;SDS011;43129;52.628;10.098;2023-11-18T13:22:03;36.55;;;20.52;;
57281;SDS011;43129;52.628;10.098;2023-11-18T13:24:34;39.63;;;20.10;;
57281;SDS011;43129;52.628;10.098;2023-11-18T13:27:01;35.03;;;19.25;;
57281;SDS011;43129;52.628;10.098;2023-11-18T13:29:34;33.95;;;18.00;;
57281;SDS011;43129;52.628;10.098;2023-11-18T13:32:01;32.63;;;17.77;;
57281;SDS011;43129;52.628;10.098;2023-11-18T13:34:32;35.45;;;18.42;;
57281;SDS011;43129;52.628;10.098;2023-11-18T13:37:06;35.22;;;19.65;;
57281;SDS011;43129;52.628;10.098;2023-11-18T13:39:37;50.50;;;24.70;;
57281;SDS011;43129;52.628;10.098;2023-11-18T13:42:18;35.40;;;19.23;;
57281;SDS011;43129;52.628;10.098;2023-11-18T13:44:48;34.20;;;19.13;;
57281;SDS011;43129;52.628;10.098;2023-11-18T13:47:17;39.47;;;22.45;;
57281;SDS011;43129;52.628;10.098;2023-11-18T13:49:53;37.03;;;19.17;;
57281;SDS011;43129;52.628;10.098;2023-11-18T13:52:19;32.53;;;18.67;;
57281;SDS011;43129;52.628;10.098;2023-11-18T13:54:48;36.40;;;18.13;;
57281;SDS011;43129;52.628;10.098;2023-11-18T13:57:20;31.02;;;17.77;;
57281;SDS011;43129;52.628;10.098;2023-11-18T13:59:51;32.92;;;18.15;;
57281;SDS011;43129;52.628;10.098;2023-11-18T14:02:19;31.58;;;17.35;;
57281;SDS011;43129;52.628;10.098;2023-11-18T14:04:47;33.78;;;18.88;;
57281;SDS011;43129;52.628;10.098;2023-11-18T14:07:20;30.65;;;17.23;;
57281;SDS011;43129;52.628;10.098;2023-11-18T14:09:50;29.15;;;16.95;;
57281;SDS011;43129;52.628;10.098;2023-11-18T14:12:19;31.15;;;17.85;;
57281;SDS011;43129;52.628;10.098;2023-11-18T14:14:47;37.35;;;19.95;;
57281;SDS011;43129;52.628;10.098;2023-11-18T14:17:15;34.60;;;19.15;;
57281;SDS011;43129;52.628;10.098;2023-11-18T14:19:45;38.85;;;18.67;;
57281;SDS011;43129;52.628;10.098;2023-11-18T14:22:11;34.85;;;20.13;;
57281;SDS011;43129;52.628;10.098;2023-11-18T14:24:37;35.58;;;19.50;;
57281;SDS011;43129;52.628;10.098;2023-11-18T14:27:03;35.08;;;20.67;;
57281;SDS011;43129;52.628;10.098;2023-11-18T14:29:35;36.03;;;20.25;;
57281;SDS011;43129;52.628;10.098;2023-11-18T14:32:03;36.28;;;20.30;;
57281;SDS011;43129;52.628;10.098;2023-11-18T14:34:31;35.00;;;20.48;;
57281;SDS011;43129;52.628;10.098;2023-11-18T14:36:58;37.17;;;21.00;;
57281;SDS011;43129;52.628;10.098;2023-11-18T14:39:25;35.20;;;20.42;;
57281;SDS011;43129;52.628;10.098;2023-11-18T14:41:51;36.25;;;20.55;;
57281;SDS011;43129;52.628;10.098;2023-11-18T14:44:19;34.28;;;20.55;;
57281;SDS011;43129;52.628;10.098;2023-11-18T14:46:45;37.97;;;22.42;;
57281;SDS011;43129;52.628;10.098;2023-11-18T14:49:12;33.67;;;19.85;;
57281;SDS011;43129;52.628;10.098;2023-11-18T14:51:40;40.72;;;19.85;;
57281;SDS011;43129;52.628;10.098;2023-11-18T14:54:08;35.38;;;19.67;;
57281;SDS011;43129;52.628;10.098;2023-11-18T14:56:34;32.50;;;19.80;;
57281;SDS011;43129;52.628;10.098;2023-11-18T14:59:01;37.17;;;20.15;;
57281;SDS011;43129;52.628;10.098;2023-11-18T15:01:30;32.72;;;19.33;;
57281;SDS011;43129;52.628;10.098;2023-11-18T15:03:55;32.17;;;18.70;;
57281;SDS011;43129;52.628;10.098;2023-11-18T15:06:24;29.70;;;18.38;;
57281;SDS011;43129;52.628;10.098;2023-11-18T15:08:51;30.83;;;17.83;;
57281;SDS011;43129;52.628;10.098;2023-11-18T15:11:21;27.00;;;16.80;;
57281;SDS011;43129;52.628;10.098;2023-11-18T15:13:47;31.55;;;17.33;;
57281;SDS011;43129;52.628;10.098;2023-11-18T15:16:14;30.65;;;17.25;;
57281;SDS011;43129;52.628;10.098;2023-11-18T15:18:43;25.48;;;16.77;;
57281;SDS011;43129;52.628;10.098;2023-11-18T15:21:17;28.30;;;17.38;;
57281;SDS011;43129;52.628;10.098;2023-11-18T15:23:48;27.88;;;17.63;;
57281;SDS011;43129;52.628;10.098;2023-11-18T15:26:15;28.67;;;16.75;;
57281;SDS011;43129;52.628;10.098;2023-11-18T15:28:41;28.38;;;17.38;;
57281;SDS011;43129;52.628;10.098;2023-11-18T15:31:06;28.48;;;16.00;;
57281;SDS011;43129;52.628;10.098;2023-11-18T15:33:33;25.80;;;15.52;;
57281;SDS011;43129;52.628;10.098;2023-11-18T15:35:59;28.10;;;16.15;;
57281;SDS011;43129;52.628;10.098;2023-11-18T15:38:26;25.15;;;15.95;;
57281;SDS011;43129;52.628;10.098;2023-11-18T15:40:54;27.58;;;15.40;;
57281;SDS011;43129;52.628;10.098;2023-11-18T15:43:19;26.00;;;15.95;;
57281;SDS011;43129;52.628;10.098;2023-11-18T15:45:47;24.95;;;15.30;;
57281;SDS011;43129;52.628;10.098;2023-11-18T15:48:16;25.30;;;14.90;;
57281;SDS011;43129;52.628;10.098;2023-11-18T15:50:42;28.25;;;16.38;;
57281;SDS011;43129;52.628;10.098;2023-11-18T15:53:10;29.00;;;15.45;;
57281;SDS011;43129;52.628;10.098;2023-11-18T15:55:41;25.77;;;15.25;;
57281;SDS011;43129;52.628;10.098;2023-11-18T15:58:12;22.48;;;15.27;;
57281;SDS011;43129;52.628;10.098;2023-11-18T16:00:38;28.63;;;16.42;;
57281;SDS011;43129;52.628;10.098;2023-11-18T16:03:08;29.15;;;17.52;;
57281;SDS011;43129;52.628;10.098;2023-11-18T16:05:36;27.35;;;16.63;;
57281;SDS011;43129;52.628;10.098;2023-11-18T16:08:02;31.83;;;18.45;;
57281;SDS011;43129;52.628;10.098;2023-11-18T16:10:31;29.25;;;18.38;;
57281;SDS011;43129;52.628;10.098;2023-11-18T16:13:00;28.15;;;18.38;;
57281;SDS011;43129;52.628;10.098;2023-11-18T16:15:27;31.10;;;19.13;;
57281;SDS011;43129;52.628;10.098;2023-11-18T16:18:00;33.75;;;19.48;;
57281;SDS011;43129;52.628;10.098;2023-11-18T16:20:27;34.17;;;19.42;;
57281;SDS011;43129;52.628;10.098;2023-11-18T16:22:57;30.67;;;17.77;;
57281;SDS011;43129;52.628;10.098;2023-11-18T16:25:27;35.15;;;20.40;;
57281;SDS011;43129;52.628;10.098;2023-11-18T16:27:58;35.38;;;20.00;;
57281;SDS011;43129;52.628;10.098;2023-11-18T16:30:27;34.28;;;19.42;;
57281;SDS011;43129;52.628;10.098;2023-11-18T16:32:57;43.15;;;24.80;;
57281;SDS011;43129;52.628;10.098;2023-11-18T16:35:24;34.35;;;20.30;;
57281;SDS011;43129;52.628;10.098;2023-11-18T16:37:53;44.30;;;21.05;;
57281;SDS011;43129;52.628;10.098;2023-11-18T16:40:22;39.45;;;22.10;;
57281;SDS011;43129;52.628;10.098;2023-11-18T16:42:53;32.47;;;20.05;;
57281;SDS011;43129;52.628;10.098;2023-11-18T16:45:20;38.50;;;20.60;;
57281;SDS011;43129;52.628;10.098;2023-11-18T16:47:46;37.05;;;21.27;;
57281;SDS011;43129;52.628;10.098;2023-11-18T16:50:18;36.28;;;19.90;;
57281;SDS011;43129;52.628;10.098;2023-11-18T16:52:51;33.90;;;18.95;;
57281;SDS011;43129;52.628;10.098;2023-11-18T16:55:18;34.75;;;18.98;;
57281;SDS011;43129;52.628;10.098;2023-11-18T16:57:45;39.17;;;21.85;;
57281;SDS011;43129;52.628;10.098;2023-11-18T17:00:13;38.47;;;21.02;;
57281;SDS011;43129;52.628;10.098;2023-11-18T17:02:51;36.50;;;20.38;;
57281;SDS011;43129;52.628;10.098;2023-11-18T17:05:19;37.00;;;21.65;;
57281;SDS011;43129;52.628;10.098;2023-11-18T17:07:51;37.90;;;21.70;;
57281;SDS011;43129;52.628;10.098;2023-11-18T17:10:19;39.13;;;21.27;;
57281;SDS011;43129;52.628;10.098;2023-11-18T17:12:47;37.08;;;21.02;;
57281;SDS011;43129;52.628;10.098;2023-11-18T17:15:16;37.47;;;20.55;;
57281;SDS011;43129;52.628;10.098;2023-11-18T17:17:45;36.97;;;21.65;;
57281;SDS011;43129;52.628;10.098;2023-11-18T17:20:13;38.17;;;21.15;;
57281;SDS011;43129;52.628;10.098;2023-11-18T17:22:40;33.58;;;19.48;;
57281;SDS011;43129;52.628;10.098;2023-11-18T17:25:07;44.78;;;20.92;;
57281;SDS011;43129;52.628;10.098;2023-11-18T17:27:41;40.42;;;22.13;;
57281;SDS011;43129;52.628;10.098;2023-11-18T17:30:08;38.42;;;21.63;;
57281;SDS011;43129;52.628;10.098;2023-11-18T17:32:40;42.58;;;21.80;;
57281;SDS011;43129;52.628;10.098;2023-11-18T17:35:07;36.30;;;21.27;;
57281;SDS011;43129;52.628;10.098;2023-11-18T17:37:34;44.90;;;23.35;;
57281;SDS011;43129;52.628;10.098;2023-11-18T17:40:05;40.83;;;21.50;;
57281;SDS011;43129;52.628;10.098;2023-11-18T17:42:35;37.25;;;19.52;;
57281;SDS011;43129;52.628;10.098;2023-11-18T17:45:00;34.38;;;19.30;;
57281;SDS011;43129;52.628;10.098;2023-11-18T17:47:30;33.97;;;18.10;;
57281;SDS011;43129;52.628;10.098;2023-11-18T17:50:02;35.28;;;19.60;;
57281;SDS011;43129;52.628;10.098;2023-11-18T17:52:37;33.75;;;19.60;;
57281;SDS011;43129;52.628;10.098;2023-11-18T17:55:08;36.60;;;20.83;;
57281;SDS011;43129;52.628;10.098;2023-11-18T17:57:37;39.35;;;20.83;;
57281;SDS011;43129;52.628;10.098;2023-11-18T18:00:09;35.95;;;19.75;;
57281;SDS011;43129;52.628;10.098;2023-11-18T18:02:44;31.58;;;18.52;;
57281;SDS011;43129;52.628;10.098;2023-11-18T18:05:12;34.58;;;19.40;;
57281;SDS011;43129;52.628;10.098;2023-11-18T18:07:37;35.83;;;19.00;;
57281;SDS011;43129;52.628;10.098;2023-11-18T18:10:04;34.42;;;19.40;;
57281;SDS011;43129;52.628;10.098;2023-11-18T18:12:33;37.35;;;20.60;;
57281;SDS011;43129;52.628;10.098;2023-11-18T18:14:58;35.63;;;19.98;;
57281;SDS011;43129;52.628;10.098;2023-11-18T18:17:30;35.25;;;19.92;;
57281;SDS011;43129;52.628;10.098;2023-11-18T18:19:56;30.70;;;18.73;;
57281;SDS011;43129;52.628;10.098;2023-11-18T18:22:24;35.40;;;18.38;;
57281;SDS011;43129;52.628;10.098;2023-11-18T18:24:49;32.28;;;18.65;;
57281;SDS011;43129;52.628;10.098;2023-11-18T18:27:17;33.50;;;19.02;;
57281;SDS011;43129;52.628;10.098;2023-11-18T18:29:44;33.47;;;18.45;;
57281;SDS011;43129;52.628;10.098;2023-11-18T18:32:12;36.08;;;18.90;;
57281;SDS011;43129;52.628;10.098;2023-11-18T18:34:39;39.83;;;19.83;;
57281;SDS011;43129;52.628;10.098;2023-11-18T18:37:05;31.35;;;18.75;;
57281;SDS011;43129;52.628;10.098;2023-11-18T18:39:30;36.60;;;19.10;;
57281;SDS011;43129;52.628;10.098;2023-11-18T18:41:56;35.67;;;18.77;;
57281;SDS011;43129;52.628;10.098;2023-11-18T18:44:22;31.50;;;17.95;;
57281;SDS011;43129;52.628;10.098;2023-11-18T18:46:50;34.92;;;17.83;;
57281;SDS011;43129;52.628;10.098;2023-11-18T18:49:16;27.52;;;16.75;;
57281;SDS011;43129;52.628;10.098;2023-11-18T18:51:42;33.72;;;19.08;;
57281;SDS011;43129;52.628;10.098;2023-11-18T18:54:08;28.85;;;16.92;;
57281;SDS011;43129;52.628;10.098;2023-11-18T18:56:40;28.92;;;18.13;;
57281;SDS011;43129;52.628;10.098;2023-11-18T18:59:05;29.90;;;17.88;;
57281;SDS011;43129;52.628;10.098;2023-11-18T19:01:36;28.33;;;15.98;;
57281;SDS011;43129;52.628;10.098;2023-11-18T19:04:09;29.65;;;16.67;;
57281;SDS011;43129;52.628;10.098;2023-11-18T19:06:36;31.00;;;17.35;;
57281;SDS011;43129;52.628;10.098;2023-11-18T19:09:07;34.20;;;17.73;;
57281;SDS011;43129;52.628;10.098;2023-11-18T19:11:36;32.78;;;18.08;;
57281;SDS011;43129;52.628;10.098;2023-11-18T19:14:02;35.10;;;18.52;;
57281;SDS011;43129;52.628;10.098;2023-11-18T19:16:30;31.60;;;18.23;;
57281;SDS011;43129;52.628;10.098;2023-11-18T19:18:57;30.10;;;16.77;;
57281;SDS011;43129;52.628;10.098;2023-11-18T19:21:23;32.70;;;17.90;;
57281;SDS011;43129;52.628;10.098;2023-11-18T19:23:54;32.10;;;17.13;;
57281;SDS011;43129;52.628;10.098;2023-11-18T19:26:20;28.90;;;16.08;;
57281;SDS011;43129;52.628;10.098;2023-11-18T19:28:48;28.95;;;16.58;;
57281;SDS011;43129;52.628;10.098;2023-11-18T19:31:16;29.15;;;15.95;;
57281;SDS011;43129;52.628;10.098;2023-11-18T19:33:47;29.15;;;16.15;;
57281;SDS011;43129;52.628;10.098;2023-11-18T19:36:12;28.75;;;15.80;;
57281;SDS011;43129;52.628;10.098;2023-11-18T19:38:38;25.33;;;15.25;;
57281;SDS011;43129;52.628;10.098;2023-11-18T19:41:07;26.40;;;16.00;;
57281;SDS011;43129;52.628;10.098;2023-11-18T19:43:35;26.60;;;13.88;;
57281;SDS011;43129;52.628;10.098;2023-11-18T19:46:01;27.08;;;14.73;;
57281;SDS011;43129;52.628;10.098;2023-11-18T19:48:30;25.20;;;14.48;;
57281;SDS011;43129;52.628;10.098;2023-11-18T19:50:56;25.00;;;14.15;;
57281;SDS011;43129;52.628;10.098;2023-11-18T19:53:22;28.17;;;14.63;;
57281;SDS011;43129;52.628;10.098;2023-11-18T19:55:52;27.77;;;15.05;;
57281;SDS011;43129;52.628;10.098;2023-11-18T19:58:18;25.80;;;14.80;;
57281;SDS011;43129;52.628;10.098;2023-11-18T20:00:47;30.92;;;14.77;;
57281;SDS011;43129;52.628;10.098;2023-11-18T20:03:17;27.77;;;16.83;;
57281;SDS011;43129;52.628;10.098;2023-11-18T20:05:49;28.20;;;16.55;;
57281;SDS011;43129;52.628;10.098;2023-11-18T20:08:17;29.45;;;16.92;;
57281;SDS011;43129;52.628;10.098;2023-11-18T20:10:43;26.10;;;15.85;;
57281;SDS011;43129;52.628;10.098;2023-11-18T20:13:11;25.10;;;15.30;;
57281;SDS011;43129;52.628;10.098;2023-11-18T20:15:37;27.17;;;16.23;;
57281;SDS011;43129;52.628;10.098;2023-11-18T20:18:07;25.70;;;15.65;;
57281;SDS011;43129;52.628;10.098;2023-11-18T20:20:35;28.85;;;15.32;;
57281;SDS011;43129;52.628;10.098;2023-11-18T20:23:01;25.83;;;15.43;;
57281;SDS011;43129;52.628;10.098;2023-11-18T20:25:28;28.77;;;16.10;;
57281;SDS011;43129;52.628;10.098;2023-11-18T20:27:55;25.48;;;15.38;;
57281;SDS011;43129;52.628;10.098;2023-11-18T20:30:22;24.35;;;14.82;;
57281;SDS011;43129;52.628;10.098;2023-11-18T20:32:47;27.77;;;15.50;;
57281;SDS011;43129;52.628;10.098;2023-11-18T20:35:15;26.55;;;14.48;;
57281;SDS011;43129;52.628;10.098;2023-11-18T20:37:41;26.73;;;14.93;;
57281;SDS011;43129;52.628;10.098;2023-11-18T20:40:12;29.92;;;15.48;;
57281;SDS011;43129;52.628;10.098;2023-11-18T20:42:46;35.90;;;17.02;;
57281;SDS011;43129;52.628;10.098;2023-11-18T20:45:15;29.42;;;13.85;;
57281;SDS011;43129;52.628;10.098;2023-11-18T20:47:43;28.08;;;14.27;;
57281;SDS011;43129;52.628;10.098;2023-11-18T20:50:09;23.30;;;12.10;;
57281;SDS011;43129;52.628;10.098;2023-11-18T20:52:41;21.98;;;12.55;;
57281;SDS011;43129;52.628;10.098;2023-11-18T20:55:07;23.45;;;12.77;;
57281;SDS011;43129;52.628;10.098;2023-11-18T20:57:38;23.80;;;11.93;;
57281;SDS011;43129;52.628;10.098;2023-11-18T21:00:04;21.50;;;12.68;;
57281;SDS011;43129;52.628;10.098;2023-11-18T21:02:35;21.08;;;12.40;;
57281;SDS011;43129;52.628;10.098;2023-11-18T21:05:01;20.63;;;12.05;;
57281;SDS011;43129;52.628;10.098;2023-11-18T21:07:27;21.95;;;12.82;;
57281;SDS011;43129;52.628;10.098;2023-11-18T21:09:55;23.10;;;13.35;;
57281;SDS011;43129;52.628;10.098;2023-11-18T21:12:23;26.60;;;12.65;;
57281;SDS011;43129;52.628;10.098;2023-11-18T21:14:51;21.83;;;11.50;;
57281;SDS011;43129;52.628;10.098;2023-11-18T21:17:17;19.30;;;12.10;;
57281;SDS011;43129;52.628;10.098;2023-11-18T21:19:52;24.20;;;12.52;;
57281;SDS011;43129;52.628;10.098;2023-11-18T21:22:21;20.92;;;11.75;;
57281;SDS011;43129;52.628;10.098;2023-11-18T21:24:47;20.85;;;12.02;;
57281;SDS011;43129;52.628;10.098;2023-11-18T21:27:13;21.50;;;12.30;;
57281;SDS011;43129;52.628;10.098;2023-11-18T21:29:39;19.52;;;11.75;;
57281;SDS011;43129;52.628;10.098;2023-11-18T21:32:05;20.63;;;12.77;;
57281;SDS011;43129;52.628;10.098;2023-11-18T21:34:31;23.55;;;11.93;;
57281;SDS011;43129;52.628;10.098;2023-11-18T21:36:56;17.70;;;10.85;;
57281;SDS011;43129;52.628;10.098;2023-11-18T21:39:24;18.08;;;11.00;;
57281;SDS011;43129;52.628;10.098;2023-11-18T21:41:50;18.25;;;11.05;;
57281;SDS011;43129;52.628;10.098;2023-11-18T21:44:16;18.60;;;11.13;;
57281;SDS011;43129;52.628;10.098;2023-11-18T21:46:43;21.00;;;10.85;;
57281;SDS011;43129;52.628;10.098;2023-11-18T21:49:12;15.70;;;10.23;;
57281;SDS011;43129;52.628;10.098;2023-11-18T21:51:38;15.60;;;9.20;;
57281;SDS011;43129;52.628;10.098;2023-11-18T21:54:06;14.45;;;8.93;;
57281;SDS011;43129;52.628;10.098;2023-11-18T21:56:33;13.80;;;8.73;;
57281;SDS011;43129;52.628;10.098;2023-11-18T21:59:02;13.30;;;8.63;;
57281;SDS011;43129;52.628;10.098;2023-11-18T22:01:33;15.00;;;9.68;;
57281;SDS011;43129;52.628;10.098;2023-11-18T22:04:08;16.92;;;9.45;;
57281;SDS011;43129;52.628;10.098;2023-11-18T22:06:35;13.77;;;8.65;;
57281;SDS011;43129;52.628;10.098;2023-11-18T22:09:01;15.20;;;8.50;;
57281;SDS011;43129;52.628;10.098;2023-11-18T22:11:31;14.70;;;7.68;;
57281;SDS011;43129;52.628;10.098;2023-11-18T22:13:57;13.43;;;8.73;;
57281;SDS011;43129;52.628;10.098;2023-11-18T22:16:40;12.55;;;8.40;;
57281;SDS011;43129;52.628;10.098;2023-11-18T22:19:06;15.85;;;9.00;;
57281;SDS011;43129;52.628;10.098;2023-11-18T22:21:40;12.45;;;8.00;;
57281;SDS011;43129;52.628;10.098;2023-11-18T22:24:06;11.38;;;8.13;;
57281;SDS011;43129;52.628;10.098;2023-11-18T22:26:37;15.60;;;8.07;;
57281;SDS011;43129;52.628;10.098;2023-11-18T22:29:08;10.63;;;7.38;;
57281;SDS011;43129;52.628;10.098;2023-11-18T22:31:36;11.70;;;7.07;;
57281;SDS011;43129;52.628;10.098;2023-11-18T22:34:02;13.32;;;7.30;;
57281;SDS011;43129;52.628;10.098;2023-11-18T22:36:28;11.43;;;7.38;;
57281;SDS011;43129;52.628;10.098;2023-11-18T22:38:59;12.75;;;7.03;;
57281;SDS011;43129;52.628;10.098;2023-11-18T22:41:33;10.93;;;7.05;;
57281;SDS011;43129;52.628;10.098;2023-11-18T22:44:00;9.27;;;6.35;;
57281;SDS011;43129;52.628;10.098;2023-11-18T22:46:25;10.95;;;6.20;;
57281;SDS011;43129;52.628;10.098;2023-11-18T22:48:53;10.07;;;6.38;;
57281;SDS011;43129;52.628;10.098;2023-11-18T22:51:41;10.93;;;6.90;;
57281;SDS011;43129;52.628;10.098;2023-11-18T22:54:07;21.10;;;11.65;;
57281;SDS011;43129;52.628;10.098;2023-11-18T22:56:36;10.80;;;6.88;;
57281;SDS011;43129;52.628;10.098;2023-11-18T22:59:04;11.23;;;6.97;;
57281;SDS011;43129;52.628;10.098;2023-11-18T23:01:33;11.27;;;6.90;;
57281;SDS011;43129;52.628;10.098;2023-11-18T23:04:03;11.77;;;6.88;;
57281;SDS011;43129;52.628;10.098;2023-11-18T23:06:36;9.50;;;6.65;;
57281;SDS011;43129;52.628;10.098;2023-11-18T23:09:02;9.35;;;6.63;;
57281;SDS011;43129;52.628;10.098;2023-11-18T23:11:30;7.47;;;4.80;;
57281;SDS011;43129;52.628;10.098;2023-11-18T23:13:56;8.65;;;5.28;;
57281;SDS011;43129;52.628;10.098;2023-11-18T23:16:23;6.57;;;4.53;;
57281;SDS011;43129;52.628;10.098;2023-11-18T23:18:49;6.50;;;4.95;;
57281;SDS011;43129;52.628;10.098;2023-11-18T23:21:17;6.47;;;4.20;;
57281;SDS011;43129;52.628;10.098;2023-11-18T23:23:43;6.18;;;4.95;;